createdAt,value
2022-10-26T00:01:16.639Z,17.16
2022-10-26T00:03:46.632Z,17.05
2022-10-26T00:06:16.906Z,17.05
2022-10-26T00:08:45.790Z,17.04
2022-10-26T00:11:16.378Z,17.03
2022-10-26T00:13:45.282Z,17.00
2022-10-26T00:16:15.652Z,16.95
2022-10-26T00:18:44.380Z,16.99
2022-10-26T00:21:13.886Z,17.01
2022-10-26T00:23:42.065Z,16.98
2022-10-26T00:26:10.812Z,16.95
2022-10-26T00:28:42.083Z,16.88
2022-10-26T00:31:14.226Z,16.82
2022-10-26T00:33:42.795Z,16.73
2022-10-26T00:36:13.998Z,16.77
2022-10-26T00:38:46.114Z,16.60
2022-10-26T00:41:16.548Z,16.56
2022-10-26T00:43:47.638Z,16.54
2022-10-26T00:46:20.171Z,16.56
2022-10-26T00:48:52.312Z,16.53
2022-10-26T00:51:26.972Z,16.52
2022-10-26T00:53:56.911Z,16.52
2022-10-26T00:56:25.664Z,16.50
2022-10-26T00:58:57.449Z,16.38
2022-10-26T01:01:25.685Z,16.42
2022-10-26T01:03:54.821Z,16.33
2022-10-26T01:06:23.251Z,16.25
2022-10-26T01:08:52.001Z,16.25
2022-10-26T01:11:21.021Z,16.16
2022-10-26T01:13:52.591Z,16.21
2022-10-26T01:16:42.857Z,16.10
2022-10-26T01:19:34.499Z,16.13
2022-10-26T01:22:05.872Z,16.13
2022-10-26T01:25:03.235Z,16.07
2022-10-26T01:27:35.786Z,15.99
2022-10-26T01:30:33.388Z,15.94
2022-10-26T01:33:25.257Z,15.89
2022-10-26T01:36:02.663Z,15.91
2022-10-26T01:38:40.205Z,15.92
2022-10-26T01:41:16.896Z,15.97
2022-10-26T01:43:51.825Z,15.97
2022-10-26T01:46:25.171Z,15.94
2022-10-26T01:48:57.394Z,15.88
2022-10-26T01:51:28.117Z,15.84
2022-10-26T01:53:56.431Z,15.81
2022-10-26T01:56:28.139Z,15.76
2022-10-26T01:59:14.886Z,15.79
2022-10-26T02:02:16.372Z,15.73
2022-10-26T02:04:59.664Z,15.60
2022-10-26T02:07:36.616Z,15.73
2022-10-26T02:10:18.123Z,15.69
2022-10-26T02:12:54.570Z,15.75
2022-10-26T02:15:26.745Z,15.69
2022-10-26T02:18:01.245Z,15.64
2022-10-26T02:20:34.784Z,15.64
2022-10-26T02:23:05.620Z,15.61
2022-10-26T02:25:37.136Z,15.53
2022-10-26T02:28:09.227Z,15.54
2022-10-26T02:30:39.951Z,15.45
2022-10-26T02:33:14.179Z,15.46
2022-10-26T02:35:44.651Z,15.46
2022-10-26T02:38:14.978Z,15.40
2022-10-26T02:40:44.092Z,15.35
2022-10-26T02:43:16.473Z,15.38
2022-10-26T02:45:47.844Z,15.40
2022-10-26T02:48:17.866Z,15.36
2022-10-26T02:50:56.346Z,15.27
2022-10-26T02:53:29.092Z,15.30
2022-10-26T02:55:57.259Z,15.35
2022-10-26T02:58:29.748Z,15.35
2022-10-26T03:00:59.286Z,15.33
2022-10-26T03:03:28.815Z,15.39
2022-10-26T03:05:57.110Z,15.42
2022-10-26T03:08:25.421Z,15.44
2022-10-26T03:10:53.967Z,15.41
2022-10-26T03:13:22.204Z,15.31
2022-10-26T03:15:50.356Z,15.30
2022-10-26T03:18:18.437Z,15.32
2022-10-26T03:20:47.994Z,15.24
2022-10-26T03:23:16.138Z,15.20
2022-10-26T03:25:44.267Z,15.26
2022-10-26T03:28:12.578Z,15.21
2022-10-26T03:30:40.713Z,15.21
2022-10-26T03:33:08.802Z,15.21
2022-10-26T03:35:36.844Z,15.19
2022-10-26T03:38:06.408Z,15.19
2022-10-26T03:40:35.997Z,15.14
2022-10-26T03:43:04.485Z,15.12
2022-10-26T03:45:32.605Z,15.07
2022-10-26T03:48:01.728Z,14.94
2022-10-26T03:50:29.802Z,15.00
2022-10-26T03:52:57.921Z,15.03
2022-10-26T03:55:28.437Z,15.06
2022-10-26T03:57:56.496Z,14.96
2022-10-26T04:00:24.591Z,15.04
2022-10-26T04:02:57.588Z,14.90
2022-10-26T04:05:26.505Z,14.87
2022-10-26T04:07:55.414Z,14.82
2022-10-26T04:10:24.105Z,14.81
2022-10-26T04:12:53.919Z,14.85
2022-10-26T04:15:22.762Z,14.86
2022-10-26T04:17:57.265Z,14.86
2022-10-26T04:20:25.665Z,14.87
2022-10-26T04:23:01.607Z,14.87
2022-10-26T04:25:32.855Z,14.90
2022-10-26T04:28:03.914Z,14.88
2022-10-26T04:30:32.280Z,14.94
2022-10-26T04:33:00.769Z,14.95
2022-10-26T04:35:29.759Z,15.07
2022-10-26T04:38:01.233Z,15.14
2022-10-26T04:40:29.784Z,15.18
2022-10-26T04:42:58.015Z,15.23
2022-10-26T04:45:31.079Z,15.26
2022-10-26T04:48:04.745Z,15.21
2022-10-26T04:50:33.143Z,15.18
2022-10-26T04:53:01.408Z,15.20
2022-10-26T04:55:29.711Z,15.21
2022-10-26T04:58:00.351Z,15.17
2022-10-26T05:00:32.973Z,15.18
2022-10-26T05:03:01.625Z,15.15
2022-10-26T05:05:30.282Z,15.08
2022-10-26T05:07:58.748Z,15.09
2022-10-26T05:10:27.841Z,15.22
2022-10-26T05:12:57.373Z,15.19
2022-10-26T05:15:25.833Z,15.29
2022-10-26T05:17:58.667Z,15.37
2022-10-26T05:20:30.120Z,15.45
2022-10-26T05:22:58.986Z,15.51
2022-10-26T05:25:27.582Z,15.55
2022-10-26T05:27:59.252Z,15.62
2022-10-26T05:30:27.548Z,15.66
2022-10-26T05:32:57.709Z,15.72
2022-10-26T05:35:26.770Z,15.71
2022-10-26T05:37:55.611Z,15.76
2022-10-26T05:40:24.057Z,15.75
2022-10-26T05:42:53.011Z,15.79
2022-10-26T05:45:21.607Z,15.89
2022-10-26T05:47:49.883Z,15.93
2022-10-26T05:50:19.726Z,15.90
2022-10-26T05:52:49.137Z,15.84
2022-10-26T05:55:19.425Z,15.74
2022-10-26T05:57:48.515Z,15.75
2022-10-26T06:00:19.367Z,15.78
2022-10-26T06:03:03.904Z,15.85
2022-10-26T06:05:36.969Z,15.81
2022-10-26T06:08:09.777Z,15.89
2022-10-26T06:10:38.884Z,15.81
2022-10-26T06:13:07.537Z,15.95
2022-10-26T06:15:44.237Z,16.01
2022-10-26T06:18:22.642Z,16.05
2022-10-26T06:21:03.060Z,16.09
2022-10-26T06:23:54.548Z,16.17
2022-10-26T06:26:34.529Z,16.24
2022-10-26T06:29:12.408Z,16.31
2022-10-26T06:31:40.606Z,16.51
2022-10-26T06:34:12.439Z,16.55
2022-10-26T06:36:42.987Z,16.60
2022-10-26T06:39:13.670Z,16.57
2022-10-26T06:41:42.442Z,16.50
2022-10-26T06:44:19.628Z,16.53
2022-10-26T06:46:52.818Z,16.45
2022-10-26T06:49:29.000Z,16.45
2022-10-26T06:52:01.320Z,16.70
2022-10-26T06:54:41.776Z,16.76
2022-10-26T06:57:10.539Z,16.88
2022-10-26T06:59:42.132Z,16.94
2022-10-26T07:02:11.006Z,16.91
2022-10-26T07:04:39.504Z,16.84
2022-10-26T07:07:10.515Z,16.85
2022-10-26T07:09:38.620Z,16.87
2022-10-26T07:12:06.969Z,16.80
2022-10-26T07:14:35.206Z,16.80
2022-10-26T07:17:03.413Z,16.75
2022-10-26T07:19:32.072Z,16.82
2022-10-26T07:22:01.296Z,16.88
2022-10-26T07:24:31.099Z,16.80
2022-10-26T07:27:00.450Z,16.66
2022-10-26T07:29:29.372Z,16.53
2022-10-26T07:31:57.580Z,16.59
2022-10-26T07:34:25.637Z,16.37
2022-10-26T07:36:53.738Z,16.35
2022-10-26T07:39:21.781Z,16.31
2022-10-26T07:41:51.324Z,16.39
2022-10-26T07:44:19.665Z,16.32
2022-10-26T07:46:48.525Z,16.23
2022-10-26T07:49:19.323Z,16.34
2022-10-26T07:51:47.876Z,16.54
2022-10-26T07:54:16.151Z,16.73
2022-10-26T07:56:46.738Z,16.96
2022-10-26T07:59:17.195Z,17.23
2022-10-26T08:01:45.964Z,17.45
2022-10-26T08:04:14.076Z,17.71
2022-10-26T08:06:42.440Z,18.02
2022-10-26T08:09:10.531Z,18.34
2022-10-26T08:11:38.610Z,18.67
2022-10-26T08:14:07.022Z,19.11
2022-10-26T08:16:36.579Z,19.46
2022-10-26T08:19:04.689Z,20.04
2022-10-26T08:21:39.501Z,20.15
2022-10-26T08:24:09.093Z,20.17
2022-10-26T08:26:37.634Z,20.24
2022-10-26T08:29:05.779Z,20.25
2022-10-26T08:31:34.398Z,20.23
2022-10-26T08:34:04.557Z,20.36
2022-10-26T08:36:32.838Z,20.43
2022-10-26T08:39:01.084Z,20.28
2022-10-26T08:41:37.463Z,20.12
2022-10-26T08:44:16.451Z,19.71
2022-10-26T08:46:47.992Z,19.42
2022-10-26T08:49:24.422Z,19.49
2022-10-26T08:51:57.508Z,19.71
2022-10-26T08:54:38.461Z,19.85
2022-10-26T08:57:17.601Z,20.24
2022-10-26T08:59:50.580Z,20.27
2022-10-26T09:02:19.231Z,20.30
2022-10-26T09:04:48.921Z,20.54
2022-10-26T09:07:33.715Z,20.83
2022-10-26T09:10:13.326Z,20.93
2022-10-26T09:12:49.954Z,21.29
2022-10-26T09:15:27.769Z,21.68
2022-10-26T09:18:06.703Z,21.86
2022-10-26T09:21:02.999Z,21.93
2022-10-26T09:23:51.151Z,21.77
2022-10-26T09:26:30.009Z,21.76
2022-10-26T09:29:03.066Z,21.50
2022-10-26T09:31:32.994Z,21.11
2022-10-26T09:34:06.554Z,21.05
2022-10-26T09:36:37.560Z,21.02
2022-10-26T09:39:15.713Z,21.03
2022-10-26T09:41:48.816Z,21.06
2022-10-26T09:44:27.465Z,21.13
2022-10-26T09:46:59.835Z,21.30
2022-10-26T09:49:34.851Z,21.56
2022-10-26T09:52:05.612Z,21.77
2022-10-26T09:54:33.820Z,21.52
2022-10-26T09:57:03.089Z,21.63
2022-10-26T09:59:35.040Z,21.90
2022-10-26T10:02:27.477Z,21.74
2022-10-26T10:04:55.546Z,21.25
2022-10-26T10:07:25.059Z,21.04
2022-10-26T10:10:09.359Z,20.81
2022-10-26T10:12:37.426Z,20.58
2022-10-26T10:15:06.055Z,20.15
2022-10-26T10:17:35.131Z,19.92
2022-10-26T10:20:13.562Z,20.01
2022-10-26T10:22:56.378Z,20.11
2022-10-26T10:25:33.576Z,20.18
2022-10-26T10:28:01.675Z,20.17
2022-10-26T10:30:32.210Z,20.28
2022-10-26T10:33:08.188Z,20.45
2022-10-26T10:35:37.027Z,20.70
2022-10-26T10:38:06.655Z,20.91
2022-10-26T10:40:35.846Z,20.96
2022-10-26T10:43:08.266Z,21.02
2022-10-26T10:45:37.434Z,21.19
2022-10-26T10:48:14.732Z,21.29
2022-10-26T10:50:54.421Z,21.43
2022-10-26T10:53:27.202Z,21.63
2022-10-26T10:56:10.787Z,21.52
2022-10-26T10:58:49.394Z,21.40
2022-10-26T11:01:22.915Z,21.59
2022-10-26T11:04:16.824Z,21.53
2022-10-26T11:06:46.644Z,21.46
2022-10-26T11:09:20.395Z,21.43
2022-10-26T11:11:52.096Z,21.55
2022-10-26T11:14:25.293Z,21.48
2022-10-26T11:16:58.131Z,21.17
2022-10-26T11:19:33.880Z,21.09
2022-10-26T11:22:06.268Z,21.00
2022-10-26T11:24:44.046Z,21.27
2022-10-26T11:27:17.198Z,21.43
2022-10-26T11:29:53.435Z,21.42
2022-10-26T11:32:25.131Z,21.38
2022-10-26T11:34:59.651Z,21.34
2022-10-26T11:37:37.604Z,21.44
2022-10-26T11:40:20.225Z,21.24
2022-10-26T11:42:53.611Z,21.19
2022-10-26T11:45:26.565Z,20.52
2022-10-26T11:47:59.472Z,20.61
2022-10-26T11:50:34.028Z,20.73
2022-10-26T11:53:07.561Z,20.80
2022-10-26T11:55:38.296Z,20.69
2022-10-26T11:58:06.857Z,20.57
2022-10-26T12:00:38.821Z,20.59
2022-10-26T12:03:11.724Z,20.66
2022-10-26T12:05:47.996Z,20.25
2022-10-26T12:08:20.377Z,20.49
2022-10-26T12:10:57.437Z,20.77
2022-10-26T12:13:34.218Z,20.88
2022-10-26T12:16:08.452Z,21.19
2022-10-26T12:18:55.062Z,21.22
2022-10-26T12:21:28.300Z,21.27
2022-10-26T12:23:58.830Z,21.24
2022-10-26T12:26:53.665Z,20.67
2022-10-26T12:29:46.109Z,20.35
2022-10-26T12:32:50.828Z,20.54
2022-10-26T12:35:37.577Z,20.72
2022-10-26T12:38:44.660Z,20.60
2022-10-26T12:41:20.931Z,20.54
2022-10-26T12:43:50.406Z,20.39
2022-10-26T12:46:43.127Z,20.35
2022-10-26T12:49:58.446Z,20.22
2022-10-26T12:52:50.225Z,20.10
2022-10-26T12:56:04.057Z,20.02
2022-10-26T12:58:43.803Z,19.51
2022-10-26T13:01:43.261Z,19.72
2022-10-26T13:04:50.671Z,19.61
2022-10-26T13:07:22.173Z,19.61
2022-10-26T13:09:59.548Z,19.76
2022-10-26T13:12:29.182Z,19.71
2022-10-26T13:15:03.217Z,19.59
2022-10-26T13:20:08.700Z,19.16
2022-10-26T13:22:47.704Z,19.09
2022-10-26T13:25:23.942Z,19.08
2022-10-26T13:28:04.547Z,19.13
2022-10-26T13:30:45.890Z,19.13
2022-10-26T13:33:32.561Z,19.33
2022-10-26T13:36:07.864Z,19.38
2022-10-26T13:38:38.698Z,19.38
2022-10-26T13:41:20.249Z,19.33
2022-10-26T13:43:49.645Z,19.27
2022-10-26T13:46:27.684Z,19.34
2022-10-26T13:49:05.965Z,19.09
2022-10-26T13:51:42.276Z,19.03
2022-10-26T13:54:23.067Z,18.92
2022-10-26T13:57:03.205Z,18.63
2022-10-26T13:59:34.388Z,18.24
2022-10-26T14:02:17.035Z,18.10
2022-10-26T14:04:49.374Z,17.82
2022-10-26T14:07:23.254Z,17.79
2022-10-26T14:09:56.469Z,17.71
2022-10-26T14:12:26.095Z,17.64
2022-10-26T14:14:55.412Z,17.56
2022-10-26T14:17:27.197Z,17.44
2022-10-26T14:19:56.839Z,17.30
2022-10-26T14:22:27.978Z,17.20
2022-10-26T14:24:57.324Z,17.08
2022-10-26T14:27:28.363Z,16.92
2022-10-26T14:30:20.915Z,16.70
2022-10-26T14:32:46.007Z,16.65
2022-10-26T14:35:16.254Z,16.56
2022-10-26T14:37:50.816Z,16.43
2022-10-26T14:40:20.816Z,16.36
2022-10-26T14:42:51.730Z,16.31
2022-10-26T14:45:47.216Z,16.32
2022-10-26T14:48:22.340Z,16.25
2022-10-26T14:51:03.196Z,16.19
2022-10-26T14:53:36.311Z,16.07
2022-10-26T14:56:07.789Z,15.90
2022-10-26T14:58:36.430Z,15.86
2022-10-26T15:01:36.284Z,15.76
2022-10-26T15:04:07.427Z,15.72
2022-10-26T15:06:46.606Z,15.76
2022-10-26T15:09:33.345Z,15.69
2022-10-26T15:12:03.109Z,15.64
2022-10-26T15:14:31.702Z,15.61
2022-10-26T15:17:00.397Z,15.57
2022-10-26T15:19:29.212Z,15.56
2022-10-26T15:21:59.091Z,15.50
2022-10-26T15:24:34.515Z,15.48
2022-10-26T15:27:13.373Z,15.45
2022-10-26T15:29:44.230Z,15.41
2022-10-26T15:32:31.549Z,15.38
2022-10-26T15:35:27.486Z,15.31
2022-10-26T15:37:58.729Z,15.24
2022-10-26T15:40:29.240Z,15.24
2022-10-26T15:43:00.997Z,15.25
2022-10-26T15:45:33.244Z,15.21
2022-10-26T15:48:18.315Z,15.19
2022-10-26T15:50:46.420Z,15.16
2022-10-26T15:53:20.747Z,15.11
2022-10-26T15:55:49.275Z,14.99
2022-10-26T15:58:17.786Z,14.94
2022-10-26T16:00:47.352Z,14.96
2022-10-26T16:03:20.177Z,15.04
2022-10-26T16:05:48.782Z,15.12
2022-10-26T16:08:19.520Z,15.16
2022-10-26T16:10:48.668Z,15.18
2022-10-26T16:13:17.308Z,15.17
2022-10-26T16:15:46.226Z,15.07
2022-10-26T16:18:15.141Z,15.07
2022-10-26T16:20:47.065Z,15.08
2022-10-26T16:23:15.618Z,15.14
2022-10-26T16:25:46.750Z,15.15
2022-10-26T16:28:17.217Z,15.13
2022-10-26T16:30:46.037Z,15.09
2022-10-26T16:33:14.596Z,15.10
2022-10-26T16:35:44.377Z,15.13
2022-10-26T16:38:12.533Z,15.08
2022-10-26T16:40:42.700Z,15.06
2022-10-26T16:43:12.506Z,15.09
2022-10-26T16:45:42.181Z,15.02
2022-10-26T16:48:14.995Z,15.01
2022-10-26T16:50:43.248Z,15.01
2022-10-26T16:53:11.513Z,15.06
2022-10-26T16:55:39.749Z,15.09
2022-10-26T16:58:08.062Z,15.11
2022-10-26T17:00:38.172Z,15.08
2022-10-26T17:03:06.434Z,15.00
2022-10-26T17:05:34.858Z,14.87
2022-10-26T17:08:03.226Z,14.74
2022-10-26T17:10:31.277Z,14.63
2022-10-26T17:12:59.517Z,14.61
2022-10-26T17:15:29.121Z,14.56
2022-10-26T17:17:58.875Z,14.45
2022-10-26T17:20:27.477Z,14.42
2022-10-26T17:22:58.240Z,14.45
2022-10-26T17:25:26.484Z,14.52
2022-10-26T17:27:55.484Z,14.50
2022-10-26T17:30:23.836Z,14.47
2022-10-26T17:32:52.451Z,14.31
2022-10-26T17:35:22.879Z,14.31
2022-10-26T17:37:51.076Z,14.40
2022-10-26T17:40:19.456Z,14.43
2022-10-26T17:42:47.837Z,14.50
2022-10-26T17:45:16.088Z,14.52
2022-10-26T17:47:44.232Z,14.51
2022-10-26T17:50:12.646Z,14.49
2022-10-26T17:52:42.280Z,14.49
2022-10-26T17:55:10.858Z,14.50
2022-10-26T17:57:38.976Z,14.48
2022-10-26T18:00:08.042Z,14.46
2022-10-26T18:02:37.683Z,14.46
2022-10-26T18:05:07.591Z,14.43
2022-10-26T18:07:36.193Z,14.41
2022-10-26T18:10:14.056Z,14.33
2022-10-26T18:12:54.748Z,14.30
2022-10-26T18:15:24.886Z,14.32
2022-10-26T18:17:58.210Z,14.38
2022-10-26T18:20:28.786Z,14.40
2022-10-26T18:22:57.514Z,14.37
2022-10-26T18:25:27.764Z,14.38
2022-10-26T18:27:55.954Z,14.30
2022-10-26T18:30:24.586Z,14.33
2022-10-26T18:32:53.960Z,14.34
2022-10-26T18:35:22.668Z,14.35
2022-10-26T18:37:51.410Z,14.32
2022-10-26T18:40:19.705Z,14.33
2022-10-26T18:42:49.136Z,14.35
2022-10-26T18:45:17.428Z,14.34
2022-10-26T18:47:45.555Z,14.29
2022-10-26T18:50:13.607Z,14.24
2022-10-26T18:52:41.728Z,14.22
2022-10-26T18:55:10.997Z,14.14
2022-10-26T18:57:39.412Z,14.06
2022-10-26T19:00:10.712Z,14.13
2022-10-26T19:02:38.858Z,14.13
2022-10-26T19:05:08.249Z,14.02
2022-10-26T19:07:37.993Z,13.99
2022-10-26T19:10:07.767Z,14.03
2022-10-26T19:12:35.857Z,14.00
2022-10-26T19:15:07.137Z,13.96
2022-10-26T19:17:36.625Z,14.02
2022-10-26T19:20:05.558Z,14.08
2022-10-26T19:22:33.763Z,14.03
2022-10-26T19:25:03.864Z,13.99
2022-10-26T19:27:32.029Z,13.97
2022-10-26T19:30:00.328Z,13.96
2022-10-26T19:32:29.323Z,13.97
2022-10-26T19:34:58.796Z,14.16
2022-10-26T19:37:28.485Z,14.12
2022-10-26T19:39:56.926Z,14.07
2022-10-26T19:42:25.325Z,14.10
2022-10-26T19:44:53.372Z,14.05
2022-10-26T19:47:21.421Z,14.02
2022-10-26T19:49:49.749Z,14.01
2022-10-26T19:54:52.156Z,14.04
2022-10-26T19:57:20.283Z,14.02
2022-10-26T19:59:48.561Z,13.98
2022-10-26T20:02:16.665Z,14.00
2022-10-26T20:04:45.412Z,13.97
2022-10-26T20:07:15.339Z,13.95
2022-10-26T20:09:44.847Z,13.98
2022-10-26T20:12:13.992Z,13.95
2022-10-26T20:14:42.308Z,13.98
2022-10-26T20:17:10.404Z,13.94
2022-10-26T20:19:38.522Z,13.92
2022-10-26T20:22:06.716Z,13.93
2022-10-26T20:24:34.830Z,14.01
2022-10-26T20:27:04.481Z,14.10
2022-10-26T20:29:32.690Z,14.22
2022-10-26T20:32:00.768Z,14.31
2022-10-26T20:37:02.130Z,14.40
2022-10-26T20:39:30.760Z,14.37
2022-10-26T20:41:59.517Z,14.35
2022-10-26T20:44:33.175Z,14.29
2022-10-26T20:47:01.796Z,14.27
2022-10-26T20:49:30.369Z,14.28
2022-10-26T20:52:21.881Z,14.30
2022-10-26T20:54:55.137Z,14.51
2022-10-26T20:57:30.220Z,14.58
2022-10-26T21:00:04.157Z,14.69
2022-10-26T21:02:32.556Z,14.68
2022-10-26T21:05:00.674Z,14.67
2022-10-26T21:07:28.754Z,14.61
2022-10-26T21:09:56.867Z,14.63
2022-10-26T21:12:25.063Z,14.59
2022-10-26T21:14:53.222Z,14.58
2022-10-26T21:17:22.891Z,14.51
2022-10-26T21:19:50.979Z,14.53
2022-10-26T21:22:19.345Z,14.65
2022-10-26T21:24:47.646Z,14.68
2022-10-26T21:27:15.896Z,14.73
2022-10-26T21:29:43.975Z,14.81
2022-10-26T21:32:12.103Z,14.81
2022-10-26T21:34:41.576Z,14.79
2022-10-26T21:37:09.759Z,14.76
2022-10-26T21:39:38.033Z,14.61
2022-10-26T21:42:06.233Z,14.62
2022-10-26T21:44:40.902Z,14.61
2022-10-26T21:47:10.071Z,14.58
2022-10-26T21:49:38.299Z,14.52
2022-10-26T21:52:09.159Z,14.44
2022-10-26T21:54:37.452Z,14.46
2022-10-26T21:57:05.677Z,14.49
2022-10-26T21:59:33.817Z,14.47
2022-10-26T22:02:01.950Z,14.47
2022-10-26T22:04:30.575Z,14.45
2022-10-26T22:06:58.713Z,14.39
2022-10-26T22:09:28.124Z,14.32
2022-10-26T22:11:56.208Z,14.26
2022-10-26T22:14:24.558Z,14.25
2022-10-26T22:16:52.727Z,14.20
2022-10-26T22:19:20.883Z,14.16
2022-10-26T22:21:48.934Z,14.08
2022-10-26T22:24:17.211Z,14.01
2022-10-26T22:26:46.788Z,14.06
2022-10-26T22:29:14.863Z,14.06
2022-10-26T22:31:42.981Z,14.04
2022-10-26T22:34:15.772Z,14.10
2022-10-26T22:36:44.304Z,14.25
2022-10-26T22:39:12.446Z,14.25
2022-10-26T22:41:40.567Z,14.27
2022-10-26T22:44:10.152Z,14.46
2022-10-26T22:46:38.147Z,14.59
2022-10-26T22:49:06.263Z,14.66
2022-10-26T22:51:35.968Z,14.74
2022-10-26T22:54:05.966Z,14.80
2022-10-26T22:56:36.103Z,14.78
2022-10-26T22:59:04.549Z,14.75
2022-10-26T23:01:37.227Z,14.78
2022-10-26T23:04:05.907Z,14.78
2022-10-26T23:06:34.427Z,14.88
2022-10-26T23:09:02.638Z,14.87
2022-10-26T23:11:30.901Z,14.91
2022-10-26T23:14:00.571Z,14.91
2022-10-26T23:16:29.978Z,14.93
2022-10-26T23:18:59.861Z,14.88
2022-10-26T23:21:29.625Z,14.98
2022-10-26T23:23:58.217Z,14.99
2022-10-26T23:26:26.371Z,14.96
2022-10-26T23:28:54.458Z,14.96
2022-10-26T23:31:24.144Z,14.96
2022-10-26T23:33:53.145Z,14.98
2022-10-26T23:36:22.938Z,14.99
2022-10-26T23:38:51.008Z,15.01
2022-10-26T23:41:19.167Z,14.99
2022-10-26T23:43:47.542Z,15.04
2022-10-26T23:46:16.069Z,15.01
2022-10-26T23:48:44.384Z,15.06
2022-10-26T23:51:12.610Z,15.09
2022-10-26T23:53:42.106Z,15.21
2022-10-26T23:56:10.278Z,15.18
2022-10-26T23:58:38.564Z,15.17
